sensor_id;sensor_type;location;lat;lon;timestamp;pressure;altitude;pressure_sealevel;temperature;humidity
69842;BME280;57138;51.326;-0.068;2023-07-16T00:02:01;98686.50;;;14.99;85.74
69842;BME280;57138;51.326;-0.068;2023-07-16T00:04:26;98710.53;;;15.05;86.03
69842;BME280;57138;51.326;-0.068;2023-07-16T00:06:52;98678.03;;;14.85;86.37
69842;BME280;57138;51.326;-0.068;2023-07-16T00:09:17;98684.56;;;14.94;86.49
69842;BME280;57138;51.326;-0.068;2023-07-16T00:11:43;98707.84;;;15.05;85.65
69842;BME280;57138;51.326;-0.068;2023-07-16T00:14:10;98696.22;;;15.00;85.91
69842;BME280;57138;51.326;-0.068;2023-07-16T00:16:36;98690.53;;;14.96;86.40
69842;BME280;57138;51.326;-0.068;2023-07-16T00:19:01;98699.41;;;14.97;86.06
69842;BME280;57138;51.326;-0.068;2023-07-16T00:21:26;98709.69;;;15.05;85.84
69842;BME280;57138;51.326;-0.068;2023-07-16T00:23:53;98709.91;;;14.98;85.85
69842;BME280;57138;51.326;-0.068;2023-07-16T00:26:18;98713.66;;;14.97;85.74
69842;BME280;57138;51.326;-0.068;2023-07-16T00:28:44;98711.22;;;14.96;86.38
69842;BME280;57138;51.326;-0.068;2023-07-16T00:31:10;98700.69;;;14.89;86.82
69842;BME280;57138;51.326;-0.068;2023-07-16T00:33:36;98693.06;;;14.81;86.60
69842;BME280;57138;51.326;-0.068;2023-07-16T00:36:02;98723.34;;;14.93;86.58
69842;BME280;57138;51.326;-0.068;2023-07-16T00:38:27;98712.75;;;14.86;86.27
69842;BME280;57138;51.326;-0.068;2023-07-16T00:40:53;98726.03;;;14.93;86.51
69842;BME280;57138;51.326;-0.068;2023-07-16T00:43:18;98729.78;;;14.92;86.88
69842;BME280;57138;51.326;-0.068;2023-07-16T00:45:45;98721.91;;;14.85;86.28
69842;BME280;57138;51.326;-0.068;2023-07-16T00:48:12;98725.34;;;14.81;86.43
69842;BME280;57138;51.326;-0.068;2023-07-16T00:50:39;98729.97;;;14.85;86.17
69842;BME280;57138;51.326;-0.068;2023-07-16T00:53:08;98733.47;;;14.86;86.64
69842;BME280;57138;51.326;-0.068;2023-07-16T00:55:36;98729.66;;;14.82;86.73
69842;BME280;57138;51.326;-0.068;2023-07-16T00:58:06;98736.41;;;14.84;86.63
69842;BME280;57138;51.326;-0.068;2023-07-16T01:00:33;98733.44;;;14.81;86.29
69842;BME280;57138;51.326;-0.068;2023-07-16T01:03:04;98729.66;;;14.82;86.38
69842;BME280;57138;51.326;-0.068;2023-07-16T01:08:19;98750.16;;;14.88;86.20
69842;BME280;57138;51.326;-0.068;2023-07-16T01:10:45;98750.69;;;14.85;86.20
69842;BME280;57138;51.326;-0.068;2023-07-16T01:13:11;98739.63;;;14.81;85.92
69842;BME280;57138;51.326;-0.068;2023-07-16T01:15:37;98758.25;;;14.88;85.91
69842;BME280;57138;51.326;-0.068;2023-07-16T01:18:04;98742.81;;;14.78;85.86
69842;BME280;57138;51.326;-0.068;2023-07-16T01:20:30;98764.13;;;14.85;85.76
69842;BME280;57138;51.326;-0.068;2023-07-16T01:23:12;98769.84;;;14.88;85.87
69842;BME280;57138;51.326;-0.068;2023-07-16T01:31:21;98756.06;;;14.85;85.57
69842;BME280;57138;51.326;-0.068;2023-07-16T01:33:48;98759.75;;;14.79;85.91
69842;BME280;57138;51.326;-0.068;2023-07-16T01:36:15;98763.53;;;14.78;86.10
69842;BME280;57138;51.326;-0.068;2023-07-16T01:38:41;98752.97;;;14.71;86.23
69842;BME280;57138;51.326;-0.068;2023-07-16T01:41:07;98729.66;;;14.60;85.96
69842;BME280;57138;51.326;-0.068;2023-07-16T01:43:32;98748.34;;;14.66;86.29
69842;BME280;57138;51.326;-0.068;2023-07-16T01:45:58;98763.81;;;14.81;86.23
69842;BME280;57138;51.326;-0.068;2023-07-16T01:48:33;98764.09;;;14.80;86.15
69842;BME280;57138;51.326;-0.068;2023-07-16T01:51:00;98749.44;;;14.70;86.32
69842;BME280;57138;51.326;-0.068;2023-07-16T01:53:26;98764.53;;;14.71;85.94
69842;BME280;57138;51.326;-0.068;2023-07-16T01:55:51;98744.34;;;14.52;86.47
69842;BME280;57138;51.326;-0.068;2023-07-16T01:58:17;98754.72;;;14.60;86.21
69842;BME280;57138;51.326;-0.068;2023-07-16T02:00:42;98757.72;;;14.64;86.40
69842;BME280;57138;51.326;-0.068;2023-07-16T02:03:08;98758.88;;;14.51;86.25
69842;BME280;57138;51.326;-0.068;2023-07-16T02:05:34;98778.56;;;14.56;86.42
69842;BME280;57138;51.326;-0.068;2023-07-16T02:07:59;98777.22;;;14.54;86.46
69842;BME280;57138;51.326;-0.068;2023-07-16T02:10:25;98791.72;;;14.53;86.45
69842;BME280;57138;51.326;-0.068;2023-07-16T02:12:50;98790.66;;;14.54;86.27
69842;BME280;57138;51.326;-0.068;2023-07-16T02:15:16;98776.56;;;14.47;85.91
69842;BME280;57138;51.326;-0.068;2023-07-16T02:17:43;98791.16;;;14.51;85.88
69842;BME280;57138;51.326;-0.068;2023-07-16T02:20:09;98793.25;;;14.49;85.84
69842;BME280;57138;51.326;-0.068;2023-07-16T02:22:36;98783.19;;;14.39;85.12
69842;BME280;57138;51.326;-0.068;2023-07-16T02:25:02;98795.59;;;14.40;85.42
69842;BME280;57138;51.326;-0.068;2023-07-16T02:27:27;98804.22;;;14.42;85.74
69842;BME280;57138;51.326;-0.068;2023-07-16T02:29:53;98795.50;;;14.35;85.84
69842;BME280;57138;51.326;-0.068;2023-07-16T02:32:18;98792.50;;;14.31;85.83
69842;BME280;57138;51.326;-0.068;2023-07-16T02:34:46;98803.91;;;14.38;85.66
69842;BME280;57138;51.326;-0.068;2023-07-16T02:37:12;98799.25;;;14.34;85.41
69842;BME280;57138;51.326;-0.068;2023-07-16T02:39:38;98793.06;;;14.33;84.94
69842;BME280;57138;51.326;-0.068;2023-07-16T02:42:04;98810.38;;;14.43;84.37
69842;BME280;57138;51.326;-0.068;2023-07-16T02:44:29;98809.78;;;14.35;84.45
69842;BME280;57138;51.326;-0.068;2023-07-16T02:46:55;98821.72;;;14.45;83.67
69842;BME280;57138;51.326;-0.068;2023-07-16T02:49:20;98819.28;;;14.43;84.04
69842;BME280;57138;51.326;-0.068;2023-07-16T02:51:46;98822.13;;;14.36;83.64
69842;BME280;57138;51.326;-0.068;2023-07-16T02:54:11;98820.34;;;14.42;83.60
69842;BME280;57138;51.326;-0.068;2023-07-16T02:56:37;98827.84;;;14.40;82.53
69842;BME280;57138;51.326;-0.068;2023-07-16T02:59:02;98824.81;;;14.36;82.55
69842;BME280;57138;51.326;-0.068;2023-07-16T03:01:28;98820.94;;;14.27;82.05
69842;BME280;57138;51.326;-0.068;2023-07-16T03:03:53;98818.19;;;14.22;81.83
69842;BME280;57138;51.326;-0.068;2023-07-16T03:06:18;98826.72;;;14.19;81.94
69842;BME280;57138;51.326;-0.068;2023-07-16T03:08:44;98825.38;;;14.16;82.41
69842;BME280;57138;51.326;-0.068;2023-07-16T03:11:11;98831.63;;;14.22;81.98
69842;BME280;57138;51.326;-0.068;2023-07-16T03:13:36;98820.72;;;14.12;82.30
69842;BME280;57138;51.326;-0.068;2023-07-16T03:16:01;98819.09;;;14.11;82.43
69842;BME280;57138;51.326;-0.068;2023-07-16T03:18:28;98826.59;;;14.09;81.99
69842;BME280;57138;51.326;-0.068;2023-07-16T03:20:54;98834.91;;;14.07;81.83
69842;BME280;57138;51.326;-0.068;2023-07-16T03:23:20;98839.94;;;14.03;82.05
69842;BME280;57138;51.326;-0.068;2023-07-16T03:25:45;98854.44;;;14.02;81.57
69842;BME280;57138;51.326;-0.068;2023-07-16T03:28:11;98847.50;;;13.90;81.64
69842;BME280;57138;51.326;-0.068;2023-07-16T03:30:36;98857.53;;;13.94;81.51
69842;BME280;57138;51.326;-0.068;2023-07-16T03:33:03;98858.50;;;13.88;81.46
69842;BME280;57138;51.326;-0.068;2023-07-16T03:35:30;98855.50;;;13.84;81.79
69842;BME280;57138;51.326;-0.068;2023-07-16T03:37:56;98865.91;;;13.81;81.63
69842;BME280;57138;51.326;-0.068;2023-07-16T03:40:25;98863.84;;;13.71;81.68
69842;BME280;57138;51.326;-0.068;2023-07-16T03:42:52;98857.50;;;13.60;82.03
69842;BME280;57138;51.326;-0.068;2023-07-16T03:45:17;98872.00;;;13.59;81.88
69842;BME280;57138;51.326;-0.068;2023-07-16T03:47:42;98863.84;;;13.54;81.78
69842;BME280;57138;51.326;-0.068;2023-07-16T03:50:08;98883.06;;;13.63;81.95
69842;BME280;57138;51.326;-0.068;2023-07-16T03:52:34;98881.09;;;13.58;82.05
69842;BME280;57138;51.326;-0.068;2023-07-16T03:55:00;98877.28;;;13.54;81.95
69842;BME280;57138;51.326;-0.068;2023-07-16T03:57:28;98868.06;;;13.50;82.12
69842;BME280;57138;51.326;-0.068;2023-07-16T03:59:53;98889.06;;;13.53;81.68
69842;BME280;57138;51.326;-0.068;2023-07-16T04:02:19;98891.66;;;13.48;81.92
69842;BME280;57138;51.326;-0.068;2023-07-16T04:04:44;98884.09;;;13.45;82.16
69842;BME280;57138;51.326;-0.068;2023-07-16T04:07:09;98899.13;;;13.46;81.86
69842;BME280;57138;51.326;-0.068;2023-07-16T04:09:37;98900.69;;;13.42;82.06
69842;BME280;57138;51.326;-0.068;2023-07-16T04:12:04;98904.97;;;13.43;81.85
69842;BME280;57138;51.326;-0.068;2023-07-16T04:14:30;98900.56;;;13.37;82.04
69842;BME280;57138;51.326;-0.068;2023-07-16T04:16:55;98915.16;;;13.41;81.93
69842;BME280;57138;51.326;-0.068;2023-07-16T04:19:20;98914.81;;;13.37;82.07
69842;BME280;57138;51.326;-0.068;2023-07-16T04:21:46;98899.28;;;13.27;81.53
69842;BME280;57138;51.326;-0.068;2023-07-16T04:24:11;98910.97;;;13.33;82.04
69842;BME280;57138;51.326;-0.068;2023-07-16T04:26:36;98904.31;;;13.24;81.41
69842;BME280;57138;51.326;-0.068;2023-07-16T04:29:02;98918.06;;;13.27;81.32
69842;BME280;57138;51.326;-0.068;2023-07-16T04:31:27;98924.03;;;13.29;81.34
69842;BME280;57138;51.326;-0.068;2023-07-16T04:33:52;98927.53;;;13.30;81.11
69842;BME280;57138;51.326;-0.068;2023-07-16T04:36:18;98929.03;;;13.26;81.10
69842;BME280;57138;51.326;-0.068;2023-07-16T04:38:43;98941.19;;;13.28;81.12
69842;BME280;57138;51.326;-0.068;2023-07-16T04:41:08;98935.00;;;13.28;80.95
69842;BME280;57138;51.326;-0.068;2023-07-16T04:43:34;98927.31;;;13.20;80.56
69842;BME280;57138;51.326;-0.068;2023-07-16T04:45:59;98946.78;;;13.27;80.81
69842;BME280;57138;51.326;-0.068;2023-07-16T04:48:26;98943.28;;;13.26;80.56
69842;BME280;57138;51.326;-0.068;2023-07-16T04:50:51;98944.91;;;13.27;80.96
69842;BME280;57138;51.326;-0.068;2023-07-16T04:53:17;98920.69;;;13.10;80.46
69842;BME280;57138;51.326;-0.068;2023-07-16T04:55:43;98951.09;;;13.28;80.42
69842;BME280;57138;51.326;-0.068;2023-07-16T04:58:11;98955.16;;;13.30;80.20
69842;BME280;57138;51.326;-0.068;2023-07-16T05:00:37;98958.81;;;13.36;80.70
69842;BME280;57138;51.326;-0.068;2023-07-16T05:03:03;98948.88;;;13.37;80.40
69842;BME280;57138;51.326;-0.068;2023-07-16T05:05:28;98949.34;;;13.34;79.87
69842;BME280;57138;51.326;-0.068;2023-07-16T05:07:53;98971.03;;;13.56;80.14
69842;BME280;57138;51.326;-0.068;2023-07-16T05:10:19;98974.97;;;13.65;80.16
69842;BME280;57138;51.326;-0.068;2023-07-16T05:12:44;98980.75;;;13.74;78.95
69842;BME280;57138;51.326;-0.068;2023-07-16T05:15:10;98987.63;;;13.81;79.80
69842;BME280;57138;51.326;-0.068;2023-07-16T05:17:35;98989.91;;;13.90;79.21
69842;BME280;57138;51.326;-0.068;2023-07-16T05:20:01;98992.97;;;13.93;78.89
69842;BME280;57138;51.326;-0.068;2023-07-16T05:22:28;98998.50;;;14.03;78.86
69842;BME280;57138;51.326;-0.068;2023-07-16T05:24:54;98984.00;;;14.05;78.14
69842;BME280;57138;51.326;-0.068;2023-07-16T05:27:19;98993.22;;;14.09;78.23
69842;BME280;57138;51.326;-0.068;2023-07-16T05:29:45;98975.72;;;14.06;77.00
69842;BME280;57138;51.326;-0.068;2023-07-16T05:32:10;99007.91;;;14.18;76.58
69842;BME280;57138;51.326;-0.068;2023-07-16T05:34:36;99009.03;;;14.22;77.27
69842;BME280;57138;51.326;-0.068;2023-07-16T05:37:01;98981.84;;;14.18;77.10
69842;BME280;57138;51.326;-0.068;2023-07-16T05:39:26;98996.84;;;14.31;76.60
69842;BME280;57138;51.326;-0.068;2023-07-16T05:41:52;99007.91;;;14.35;76.50
69842;BME280;57138;51.326;-0.068;2023-07-16T05:44:17;98993.09;;;14.32;75.99
69842;BME280;57138;51.326;-0.068;2023-07-16T05:46:43;98998.63;;;14.43;76.23
69842;BME280;57138;51.326;-0.068;2023-07-16T05:49:09;99005.47;;;14.50;74.82
69842;BME280;57138;51.326;-0.068;2023-07-16T05:51:34;98999.28;;;14.50;75.60
69842;BME280;57138;51.326;-0.068;2023-07-16T05:54:01;99021.03;;;14.60;75.37
69842;BME280;57138;51.326;-0.068;2023-07-16T05:56:27;99020.53;;;14.63;74.57
69842;BME280;57138;51.326;-0.068;2023-07-16T05:58:52;99017.66;;;14.70;74.52
69842;BME280;57138;51.326;-0.068;2023-07-16T06:01:18;99018.06;;;14.79;74.60
69842;BME280;57138;51.326;-0.068;2023-07-16T06:03:44;99019.75;;;14.85;73.91
69842;BME280;57138;51.326;-0.068;2023-07-16T06:06:09;99029.53;;;14.91;73.88
69842;BME280;57138;51.326;-0.068;2023-07-16T06:08:34;99007.47;;;14.89;73.29
69842;BME280;57138;51.326;-0.068;2023-07-16T06:11:00;99018.38;;;14.99;73.47
69842;BME280;57138;51.326;-0.068;2023-07-16T06:13:25;99027.69;;;15.08;72.67
69842;BME280;57138;51.326;-0.068;2023-07-16T06:15:51;99034.03;;;15.19;72.29
69842;BME280;57138;51.326;-0.068;2023-07-16T06:18:16;99033.53;;;15.22;71.71
69842;BME280;57138;51.326;-0.068;2023-07-16T06:20:45;99035.19;;;15.28;71.09
69842;BME280;57138;51.326;-0.068;2023-07-16T06:23:12;99049.31;;;15.36;70.63
69842;BME280;57138;51.326;-0.068;2023-07-16T06:25:41;99037.22;;;15.38;70.35
69842;BME280;57138;51.326;-0.068;2023-07-16T06:28:12;99035.09;;;15.40;70.39
69842;BME280;57138;51.326;-0.068;2023-07-16T06:30:39;99036.25;;;15.44;70.59
69842;BME280;57138;51.326;-0.068;2023-07-16T06:33:04;99057.25;;;15.64;70.21
69842;BME280;57138;51.326;-0.068;2023-07-16T06:35:29;99066.28;;;15.75;69.76
69842;BME280;57138;51.326;-0.068;2023-07-16T06:37:55;99063.72;;;15.86;69.52
69842;BME280;57138;51.326;-0.068;2023-07-16T06:40:21;99072.72;;;15.96;69.27
69842;BME280;57138;51.326;-0.068;2023-07-16T06:42:46;99069.81;;;16.03;68.66
69842;BME280;57138;51.326;-0.068;2023-07-16T06:45:11;99072.28;;;16.05;68.67
69842;BME280;57138;51.326;-0.068;2023-07-16T06:47:37;99077.50;;;16.11;68.74
69842;BME280;57138;51.326;-0.068;2023-07-16T06:50:03;99080.22;;;16.16;68.78
69842;BME280;57138;51.326;-0.068;2023-07-16T06:52:28;99084.00;;;16.15;68.22
69842;BME280;57138;51.326;-0.068;2023-07-16T06:54:56;99074.34;;;16.20;68.27
69842;BME280;57138;51.326;-0.068;2023-07-16T06:57:23;99087.56;;;16.21;67.80
69842;BME280;57138;51.326;-0.068;2023-07-16T06:59:49;99089.22;;;16.22;67.96
69842;BME280;57138;51.326;-0.068;2023-07-16T07:02:16;99106.28;;;16.33;67.90
69842;BME280;57138;51.326;-0.068;2023-07-16T07:04:42;99108.97;;;16.33;66.96
69842;BME280;57138;51.326;-0.068;2023-07-16T07:07:07;99088.88;;;16.18;67.35
69842;BME280;57138;51.326;-0.068;2023-07-16T07:09:33;99101.50;;;16.40;66.38
69842;BME280;57138;51.326;-0.068;2023-07-16T07:11:59;99097.13;;;16.34;65.49
69842;BME280;57138;51.326;-0.068;2023-07-16T07:14:26;99094.69;;;16.32;66.22
69842;BME280;57138;51.326;-0.068;2023-07-16T07:16:51;99136.28;;;16.64;64.82
69842;BME280;57138;51.326;-0.068;2023-07-16T07:19:17;99128.81;;;16.71;64.72
69842;BME280;57138;51.326;-0.068;2023-07-16T07:21:43;99109.88;;;16.66;64.32
69842;BME280;57138;51.326;-0.068;2023-07-16T07:24:08;99130.50;;;16.82;63.97
69842;BME280;57138;51.326;-0.068;2023-07-16T07:26:34;99124.03;;;16.78;62.09
69842;BME280;57138;51.326;-0.068;2023-07-16T07:29:00;99126.41;;;16.75;63.26
69842;BME280;57138;51.326;-0.068;2023-07-16T07:31:26;99140.94;;;16.96;62.80
69842;BME280;57138;51.326;-0.068;2023-07-16T07:33:51;99147.75;;;17.03;61.94
69842;BME280;57138;51.326;-0.068;2023-07-16T07:36:18;99142.72;;;17.17;62.35
69842;BME280;57138;51.326;-0.068;2023-07-16T07:38:44;99148.19;;;17.28;62.21
69842;BME280;57138;51.326;-0.068;2023-07-16T07:41:10;99143.69;;;17.38;62.06
69842;BME280;57138;51.326;-0.068;2023-07-16T07:43:36;99143.75;;;17.49;61.47
69842;BME280;57138;51.326;-0.068;2023-07-16T07:46:01;99143.00;;;17.58;61.85
69842;BME280;57138;51.326;-0.068;2023-07-16T07:48:27;99089.34;;;17.35;60.99
69842;BME280;57138;51.326;-0.068;2023-07-16T07:50:53;99143.53;;;17.60;60.18
69842;BME280;57138;51.326;-0.068;2023-07-16T07:53:19;99150.59;;;17.61;60.45
69842;BME280;57138;51.326;-0.068;2023-07-16T07:55:45;99139.00;;;17.66;60.70
69842;BME280;57138;51.326;-0.068;2023-07-16T07:58:11;99144.69;;;17.70;60.36
69842;BME280;57138;51.326;-0.068;2023-07-16T08:00:37;99139.34;;;17.80;59.74
69842;BME280;57138;51.326;-0.068;2023-07-16T08:03:03;99141.31;;;17.90;59.64
69842;BME280;57138;51.326;-0.068;2023-07-16T08:05:28;99157.88;;;18.04;59.15
69842;BME280;57138;51.326;-0.068;2023-07-16T08:07:53;99162.53;;;18.19;59.45
69842;BME280;57138;51.326;-0.068;2023-07-16T08:10:21;99155.25;;;18.24;59.18
69842;BME280;57138;51.326;-0.068;2023-07-16T08:12:46;99150.34;;;18.21;57.73
69842;BME280;57138;51.326;-0.068;2023-07-16T08:15:13;99174.81;;;18.42;58.63
69842;BME280;57138;51.326;-0.068;2023-07-16T08:17:43;99169.41;;;18.52;58.50
69842;BME280;57138;51.326;-0.068;2023-07-16T08:20:09;99162.38;;;18.66;56.66
69842;BME280;57138;51.326;-0.068;2023-07-16T08:22:34;99164.06;;;18.78;57.88
69842;BME280;57138;51.326;-0.068;2023-07-16T08:25:00;99156.53;;;18.90;57.69
69842;BME280;57138;51.326;-0.068;2023-07-16T08:27:26;99177.66;;;19.14;56.87
69842;BME280;57138;51.326;-0.068;2023-07-16T08:29:51;99176.56;;;19.20;55.78
69842;BME280;57138;51.326;-0.068;2023-07-16T08:32:17;99176.28;;;19.16;55.47
69842;BME280;57138;51.326;-0.068;2023-07-16T08:34:42;99159.22;;;19.06;55.56
69842;BME280;57138;51.326;-0.068;2023-07-16T08:37:08;99182.53;;;19.22;54.69
69842;BME280;57138;51.326;-0.068;2023-07-16T08:39:33;99194.72;;;19.14;55.06
69842;BME280;57138;51.326;-0.068;2023-07-16T08:41:59;99198.78;;;19.01;55.44
69842;BME280;57138;51.326;-0.068;2023-07-16T08:44:25;99190.63;;;18.91;55.25
69842;BME280;57138;51.326;-0.068;2023-07-16T08:46:51;99176.00;;;18.92;54.42
69842;BME280;57138;51.326;-0.068;2023-07-16T08:49:18;99200.69;;;19.21;53.14
69842;BME280;57138;51.326;-0.068;2023-07-16T08:51:47;99192.56;;;19.06;53.20
69842;BME280;57138;51.326;-0.068;2023-07-16T08:54:13;99202.00;;;19.09;52.17
69842;BME280;57138;51.326;-0.068;2023-07-16T08:56:43;99205.28;;;19.11;52.80
69842;BME280;57138;51.326;-0.068;2023-07-16T08:59:10;99196.34;;;19.10;52.60
69842;BME280;57138;51.326;-0.068;2023-07-16T09:01:37;99180.63;;;19.22;52.35
69842;BME280;57138;51.326;-0.068;2023-07-16T09:04:03;99205.81;;;19.49;52.07
69842;BME280;57138;51.326;-0.068;2023-07-16T09:06:28;99217.19;;;19.71;51.99
69842;BME280;57138;51.326;-0.068;2023-07-16T09:08:54;99193.84;;;19.75;50.75
69842;BME280;57138;51.326;-0.068;2023-07-16T09:11:20;99206.34;;;19.87;49.75
69842;BME280;57138;51.326;-0.068;2023-07-16T09:13:47;99193.31;;;19.89;50.42
69842;BME280;57138;51.326;-0.068;2023-07-16T09:16:13;99203.03;;;20.00;50.78
69842;BME280;57138;51.326;-0.068;2023-07-16T09:18:41;99190.50;;;20.15;50.08
69842;BME280;57138;51.326;-0.068;2023-07-16T09:21:07;99197.53;;;20.26;49.27
69842;BME280;57138;51.326;-0.068;2023-07-16T09:23:33;99186.13;;;20.24;48.94
69842;BME280;57138;51.326;-0.068;2023-07-16T09:25:58;99201.81;;;20.42;48.89
69842;BME280;57138;51.326;-0.068;2023-07-16T09:28:24;99201.81;;;20.42;47.84
69842;BME280;57138;51.326;-0.068;2023-07-16T09:30:51;99211.06;;;20.36;49.03
69842;BME280;57138;51.326;-0.068;2023-07-16T09:33:18;99199.44;;;20.25;48.06
69842;BME280;57138;51.326;-0.068;2023-07-16T09:35:50;99204.34;;;20.23;47.49
69842;BME280;57138;51.326;-0.068;2023-07-16T09:38:17;99193.22;;;20.20;47.91
69842;BME280;57138;51.326;-0.068;2023-07-16T09:40:43;99212.78;;;20.11;47.45
69842;BME280;57138;51.326;-0.068;2023-07-16T09:43:10;99218.78;;;20.03;47.71
69842;BME280;57138;51.326;-0.068;2023-07-16T09:45:36;99174.91;;;19.81;48.06
69842;BME280;57138;51.326;-0.068;2023-07-16T09:48:05;99209.00;;;20.07;48.39
69842;BME280;57138;51.326;-0.068;2023-07-16T09:50:35;99207.84;;;20.29;48.91
69842;BME280;57138;51.326;-0.068;2023-07-16T09:53:03;99210.69;;;20.58;48.90
69842;BME280;57138;51.326;-0.068;2023-07-16T09:55:31;99221.22;;;20.75;47.50
69842;BME280;57138;51.326;-0.068;2023-07-16T09:58:01;99233.47;;;20.73;48.28
69842;BME280;57138;51.326;-0.068;2023-07-16T10:00:29;99215.28;;;20.68;48.44
69842;BME280;57138;51.326;-0.068;2023-07-16T10:02:55;99226.66;;;20.75;48.83
69842;BME280;57138;51.326;-0.068;2023-07-16T10:05:25;99229.91;;;20.77;49.00
69842;BME280;57138;51.326;-0.068;2023-07-16T10:07:53;99220.66;;;20.78;49.34
69842;BME280;57138;51.326;-0.068;2023-07-16T10:10:19;99237.16;;;20.92;48.16
69842;BME280;57138;51.326;-0.068;2023-07-16T10:13:01;99239.16;;;20.76;48.66
69842;BME280;57138;51.326;-0.068;2023-07-16T10:15:30;99221.94;;;20.31;49.35
69842;BME280;57138;51.326;-0.068;2023-07-16T10:18:01;99242.63;;;20.11;49.67
69842;BME280;57138;51.326;-0.068;2023-07-16T10:20:35;99247.03;;;19.92;50.86
69842;BME280;57138;51.326;-0.068;2023-07-16T10:23:15;99258.16;;;19.85;52.16
69842;BME280;57138;51.326;-0.068;2023-07-16T10:25:58;99253.81;;;19.84;51.94
69842;BME280;57138;51.326;-0.068;2023-07-16T10:28:24;99256.25;;;19.91;51.93
69842;BME280;57138;51.326;-0.068;2023-07-16T10:30:50;99257.59;;;19.99;52.16
69842;BME280;57138;51.326;-0.068;2023-07-16T10:33:15;99253.50;;;20.17;52.14
69842;BME280;57138;51.326;-0.068;2023-07-16T10:35:45;99263.19;;;20.38;52.07
69842;BME280;57138;51.326;-0.068;2023-07-16T10:38:11;99239.81;;;20.42;50.62
69842;BME280;57138;51.326;-0.068;2023-07-16T10:40:41;99222.75;;;20.37;51.32
69842;BME280;57138;51.326;-0.068;2023-07-16T10:43:07;99216.97;;;20.48;51.06
69842;BME280;57138;51.326;-0.068;2023-07-16T10:45:33;99207.69;;;20.60;50.77
69842;BME280;57138;51.326;-0.068;2023-07-16T10:47:58;99213.34;;;20.79;50.04
69842;BME280;57138;51.326;-0.068;2023-07-16T10:50:34;99232.50;;;20.98;49.54
69842;BME280;57138;51.326;-0.068;2023-07-16T10:53:03;99237.97;;;20.93;50.13
69842;BME280;57138;51.326;-0.068;2023-07-16T10:55:30;99243.63;;;21.01;50.10
69842;BME280;57138;51.326;-0.068;2023-07-16T10:57:58;99233.19;;;20.74;49.73
69842;BME280;57138;51.326;-0.068;2023-07-16T11:00:24;99211.56;;;20.48;48.90
69842;BME280;57138;51.326;-0.068;2023-07-16T11:02:50;99236.19;;;20.68;49.44
69842;BME280;57138;51.326;-0.068;2023-07-16T11:05:18;99233.97;;;20.80;49.01
69842;BME280;57138;51.326;-0.068;2023-07-16T11:07:51;99208.84;;;20.54;48.74
69842;BME280;57138;51.326;-0.068;2023-07-16T11:10:20;99225.63;;;20.61;48.22
69842;BME280;57138;51.326;-0.068;2023-07-16T11:12:53;99221.81;;;20.62;48.75
69842;BME280;57138;51.326;-0.068;2023-07-16T11:15:40;99224.69;;;20.91;45.70
69842;BME280;57138;51.326;-0.068;2023-07-16T11:18:05;99247.16;;;21.02;47.32
69842;BME280;57138;51.326;-0.068;2023-07-16T11:20:31;99230.44;;;20.79;47.14
69842;BME280;57138;51.326;-0.068;2023-07-16T11:23:00;99215.78;;;20.75;47.51
69842;BME280;57138;51.326;-0.068;2023-07-16T11:25:26;99250.25;;;21.25;49.07
69842;BME280;57138;51.326;-0.068;2023-07-16T11:27:54;99206.81;;;21.14;47.72
69842;BME280;57138;51.326;-0.068;2023-07-16T11:30:24;99212.19;;;21.25;46.57
69842;BME280;57138;51.326;-0.068;2023-07-16T11:32:57;99252.28;;;21.43;47.04
69842;BME280;57138;51.326;-0.068;2023-07-16T11:35:29;99227.88;;;21.38;47.23
69842;BME280;57138;51.326;-0.068;2023-07-16T11:37:54;99221.00;;;21.51;46.37
69842;BME280;57138;51.326;-0.068;2023-07-16T11:40:20;99228.88;;;21.82;45.98
69842;BME280;57138;51.326;-0.068;2023-07-16T11:42:46;99245.50;;;22.04;46.46
69842;BME280;57138;51.326;-0.068;2023-07-16T11:45:20;99212.81;;;21.80;42.81
69842;BME280;57138;51.326;-0.068;2023-07-16T11:47:48;99247.78;;;21.92;45.14
69842;BME280;57138;51.326;-0.068;2023-07-16T11:50:14;99236.63;;;21.94;46.01
69842;BME280;57138;51.326;-0.068;2023-07-16T11:52:41;99199.06;;;21.96;45.08
69842;BME280;57138;51.326;-0.068;2023-07-16T11:55:07;99268.72;;;22.50;44.36
69842;BME280;57138;51.326;-0.068;2023-07-16T11:57:33;99272.41;;;22.59;44.09
69842;BME280;57138;51.326;-0.068;2023-07-16T11:59:59;99266.97;;;22.59;45.62
69842;BME280;57138;51.326;-0.068;2023-07-16T12:02:27;99273.81;;;22.57;45.07
69842;BME280;57138;51.326;-0.068;2023-07-16T12:04:54;99286.66;;;22.75;44.93
69842;BME280;57138;51.326;-0.068;2023-07-16T12:07:33;99291.28;;;22.75;43.33
69842;BME280;57138;51.326;-0.068;2023-07-16T12:09:59;99278.56;;;22.46;43.38
69842;BME280;57138;51.326;-0.068;2023-07-16T12:12:25;99286.47;;;22.18;43.74
69842;BME280;57138;51.326;-0.068;2023-07-16T12:14:51;99270.56;;;21.72;44.34
69842;BME280;57138;51.326;-0.068;2023-07-16T12:17:16;99256.56;;;21.54;45.34
69842;BME280;57138;51.326;-0.068;2023-07-16T12:19:42;99284.66;;;21.79;44.40
69842;BME280;57138;51.326;-0.068;2023-07-16T12:22:07;99276.56;;;21.74;44.24
69842;BME280;57138;51.326;-0.068;2023-07-16T12:24:37;99294.69;;;21.84;43.88
69842;BME280;57138;51.326;-0.068;2023-07-16T12:27:02;99294.63;;;21.89;44.25
69842;BME280;57138;51.326;-0.068;2023-07-16T12:29:27;99296.47;;;21.99;43.76
69842;BME280;57138;51.326;-0.068;2023-07-16T12:31:53;99275.97;;;22.06;42.41
69842;BME280;57138;51.326;-0.068;2023-07-16T12:34:18;99312.47;;;22.30;43.04
69842;BME280;57138;51.326;-0.068;2023-07-16T12:36:44;99305.88;;;22.41;43.04
69842;BME280;57138;51.326;-0.068;2023-07-16T12:39:09;99284.47;;;22.53;43.47
69842;BME280;57138;51.326;-0.068;2023-07-16T12:41:35;99303.91;;;22.66;41.87
69842;BME280;57138;51.326;-0.068;2023-07-16T12:44:00;99308.78;;;22.69;43.03
69842;BME280;57138;51.326;-0.068;2023-07-16T12:46:25;99308.44;;;22.75;41.77
69842;BME280;57138;51.326;-0.068;2023-07-16T12:48:51;99304.28;;;22.59;42.70
69842;BME280;57138;51.326;-0.068;2023-07-16T12:51:17;99305.38;;;22.34;42.60
69842;BME280;57138;51.326;-0.068;2023-07-16T12:53:45;99309.75;;;22.30;43.58
69842;BME280;57138;51.326;-0.068;2023-07-16T12:56:13;99317.41;;;22.27;43.63